Terminal Aerodrome Forecast
Issued by NWS Mt. Holly, NJ

Home | Current Version | Previous Version | Text Only | Print | Product List | Glossary On
Versions: 1 2 3 4 5 6 7 8 9 10 11 12 13 14 15 16 17 18 19 20 21 22
000
FTUS41 KPHI 301740
TAFACY
TAF
KACY 301740Z 3018/0118 16010G19KT P6SM SCT090
      TEMPO 3022/0101 5SM TSRA BKN050CB
     FM010100 14005KT P6SM SHRA SCT035 BKN050
      TEMPO 0101/0104 5SM TSRA BR BKN035CB
     FM010500 14004KT 4SM -SHRA BR BKN035 OVC050
     FM010800 20004KT 4SM -SHRA BR BKN035 OVC050
     FM011500 25007KT P6SM SCT250=

USA.gov is the U.S. government's official web portal to all federal, state and local government web resources and services.